sensor_id;sensor_type;location;lat;lon;timestamp;P1;durP1;ratioP1;P2;durP2;ratioP2
37459;SDS011;23318;50.966;5.284;2024-03-25T00:00:22;11.40;;;3.58;;
37459;SDS011;23318;50.966;5.284;2024-03-25T00:02:50;16.90;;;3.38;;
37459;SDS011;23318;50.966;5.284;2024-03-25T00:05:16;8.30;;;3.63;;
37459;SDS011;23318;50.966;5.284;2024-03-25T00:07:47;6.95;;;3.75;;
37459;SDS011;23318;50.966;5.284;2024-03-25T00:10:13;16.88;;;4.93;;
37459;SDS011;23318;50.966;5.284;2024-03-25T00:12:38;12.82;;;3.95;;
37459;SDS011;23318;50.966;5.284;2024-03-25T00:15:04;9.98;;;4.55;;
37459;SDS011;23318;50.966;5.284;2024-03-25T00:17:30;11.20;;;4.40;;
37459;SDS011;23318;50.966;5.284;2024-03-25T00:19:56;9.90;;;4.80;;
37459;SDS011;23318;50.966;5.284;2024-03-25T00:22:21;19.50;;;5.63;;
37459;SDS011;23318;50.966;5.284;2024-03-25T00:24:50;13.38;;;5.05;;
37459;SDS011;23318;50.966;5.284;2024-03-25T00:27:16;15.80;;;5.45;;
37459;SDS011;23318;50.966;5.284;2024-03-25T00:29:42;14.38;;;4.47;;
37459;SDS011;23318;50.966;5.284;2024-03-25T00:32:09;13.30;;;5.10;;
37459;SDS011;23318;50.966;5.284;2024-03-25T00:34:35;16.17;;;5.97;;
37459;SDS011;23318;50.966;5.284;2024-03-25T00:37:01;16.23;;;6.20;;
37459;SDS011;23318;50.966;5.284;2024-03-25T00:39:28;18.83;;;5.95;;
37459;SDS011;23318;50.966;5.284;2024-03-25T00:41:57;16.63;;;5.22;;
37459;SDS011;23318;50.966;5.284;2024-03-25T00:44:23;14.40;;;5.57;;
37459;SDS011;23318;50.966;5.284;2024-03-25T00:46:48;11.23;;;5.68;;
37459;SDS011;23318;50.966;5.284;2024-03-25T00:49:14;17.00;;;5.90;;
37459;SDS011;23318;50.966;5.284;2024-03-25T00:51:40;12.13;;;6.15;;
37459;SDS011;23318;50.966;5.284;2024-03-25T00:54:06;17.33;;;6.15;;
37459;SDS011;23318;50.966;5.284;2024-03-25T00:56:32;13.85;;;5.63;;
37459;SDS011;23318;50.966;5.284;2024-03-25T00:58:57;16.33;;;5.80;;
37459;SDS011;23318;50.966;5.284;2024-03-25T01:01:27;17.55;;;6.63;;
37459;SDS011;23318;50.966;5.284;2024-03-25T01:03:56;19.35;;;7.05;;
37459;SDS011;23318;50.966;5.284;2024-03-25T01:06:22;15.95;;;6.38;;
37459;SDS011;23318;50.966;5.284;2024-03-25T01:08:48;21.52;;;7.47;;
37459;SDS011;23318;50.966;5.284;2024-03-25T01:11:14;25.13;;;6.82;;
37459;SDS011;23318;50.966;5.284;2024-03-25T01:13:40;15.73;;;6.80;;
37459;SDS011;23318;50.966;5.284;2024-03-25T01:16:09;12.25;;;7.00;;
37459;SDS011;23318;50.966;5.284;2024-03-25T01:18:35;11.60;;;6.15;;
37459;SDS011;23318;50.966;5.284;2024-03-25T01:21:01;14.82;;;7.40;;
37459;SDS011;23318;50.966;5.284;2024-03-25T01:23:27;15.15;;;6.53;;
37459;SDS011;23318;50.966;5.284;2024-03-25T01:25:52;14.73;;;6.85;;
37459;SDS011;23318;50.966;5.284;2024-03-25T01:28:18;18.30;;;6.70;;
37459;SDS011;23318;50.966;5.284;2024-03-25T01:30:44;13.57;;;6.10;;
37459;SDS011;23318;50.966;5.284;2024-03-25T01:33:09;14.20;;;5.65;;
37459;SDS011;23318;50.966;5.284;2024-03-25T01:35:36;15.27;;;6.40;;
37459;SDS011;23318;50.966;5.284;2024-03-25T01:38:01;16.75;;;6.25;;
37459;SDS011;23318;50.966;5.284;2024-03-25T01:40:28;17.33;;;6.35;;
37459;SDS011;23318;50.966;5.284;2024-03-25T01:43:01;16.70;;;6.90;;
37459;SDS011;23318;50.966;5.284;2024-03-25T01:45:34;15.00;;;7.22;;
37459;SDS011;23318;50.966;5.284;2024-03-25T01:48:10;11.32;;;5.68;;
37459;SDS011;23318;50.966;5.284;2024-03-25T01:50:38;21.33;;;7.80;;
37459;SDS011;23318;50.966;5.284;2024-03-25T01:53:07;13.18;;;6.50;;
37459;SDS011;23318;50.966;5.284;2024-03-25T01:55:34;19.38;;;6.45;;
37459;SDS011;23318;50.966;5.284;2024-03-25T01:58:01;16.27;;;7.43;;
37459;SDS011;23318;50.966;5.284;2024-03-25T02:00:27;15.80;;;7.63;;
37459;SDS011;23318;50.966;5.284;2024-03-25T02:02:53;16.75;;;7.43;;
37459;SDS011;23318;50.966;5.284;2024-03-25T02:05:19;15.00;;;7.38;;
37459;SDS011;23318;50.966;5.284;2024-03-25T02:07:46;14.27;;;7.38;;
37459;SDS011;23318;50.966;5.284;2024-03-25T02:10:12;17.38;;;7.03;;
37459;SDS011;23318;50.966;5.284;2024-03-25T02:12:41;19.33;;;7.88;;
37459;SDS011;23318;50.966;5.284;2024-03-25T02:15:07;19.52;;;7.95;;
37459;SDS011;23318;50.966;5.284;2024-03-25T02:17:34;19.20;;;7.90;;
37459;SDS011;23318;50.966;5.284;2024-03-25T02:20:03;15.45;;;7.85;;
37459;SDS011;23318;50.966;5.284;2024-03-25T02:22:31;24.60;;;8.07;;
37459;SDS011;23318;50.966;5.284;2024-03-25T02:24:58;14.93;;;8.15;;
37459;SDS011;23318;50.966;5.284;2024-03-25T02:27:25;16.65;;;7.30;;
37459;SDS011;23318;50.966;5.284;2024-03-25T02:30:06;23.85;;;8.77;;
37459;SDS011;23318;50.966;5.284;2024-03-25T02:32:34;20.15;;;8.15;;
37459;SDS011;23318;50.966;5.284;2024-03-25T02:35:00;20.00;;;7.95;;
37459;SDS011;23318;50.966;5.284;2024-03-25T02:37:28;16.83;;;8.13;;
37459;SDS011;23318;50.966;5.284;2024-03-25T02:39:54;16.52;;;8.43;;
37459;SDS011;23318;50.966;5.284;2024-03-25T02:42:22;18.60;;;8.60;;
37459;SDS011;23318;50.966;5.284;2024-03-25T02:44:49;19.08;;;7.80;;
37459;SDS011;23318;50.966;5.284;2024-03-25T02:47:15;16.88;;;8.18;;
37459;SDS011;23318;50.966;5.284;2024-03-25T02:49:42;18.75;;;8.40;;
37459;SDS011;23318;50.966;5.284;2024-03-25T02:52:08;18.48;;;8.18;;
37459;SDS011;23318;50.966;5.284;2024-03-25T02:54:34;13.32;;;7.75;;
37459;SDS011;23318;50.966;5.284;2024-03-25T02:56:59;16.20;;;7.25;;
37459;SDS011;23318;50.966;5.284;2024-03-25T02:59:25;14.35;;;6.88;;
37459;SDS011;23318;50.966;5.284;2024-03-25T03:01:50;15.20;;;6.97;;
37459;SDS011;23318;50.966;5.284;2024-03-25T03:04:16;18.77;;;8.05;;
37459;SDS011;23318;50.966;5.284;2024-03-25T03:06:41;19.02;;;7.65;;
37459;SDS011;23318;50.966;5.284;2024-03-25T03:09:07;20.35;;;7.93;;
37459;SDS011;23318;50.966;5.284;2024-03-25T03:11:33;23.00;;;8.07;;
37459;SDS011;23318;50.966;5.284;2024-03-25T03:13:58;16.02;;;7.47;;
37459;SDS011;23318;50.966;5.284;2024-03-25T03:16:24;15.77;;;7.78;;
37459;SDS011;23318;50.966;5.284;2024-03-25T03:18:49;16.52;;;7.95;;
37459;SDS011;23318;50.966;5.284;2024-03-25T03:21:15;15.00;;;7.97;;
37459;SDS011;23318;50.966;5.284;2024-03-25T03:23:41;18.23;;;8.13;;
37459;SDS011;23318;50.966;5.284;2024-03-25T03:26:06;15.52;;;7.15;;
37459;SDS011;23318;50.966;5.284;2024-03-25T03:28:32;13.25;;;7.00;;
37459;SDS011;23318;50.966;5.284;2024-03-25T03:30:57;15.02;;;8.07;;
37459;SDS011;23318;50.966;5.284;2024-03-25T03:33:23;15.45;;;7.57;;
37459;SDS011;23318;50.966;5.284;2024-03-25T03:35:49;14.75;;;7.95;;
37459;SDS011;23318;50.966;5.284;2024-03-25T03:38:15;19.02;;;7.75;;
37459;SDS011;23318;50.966;5.284;2024-03-25T03:40:40;15.65;;;8.60;;
37459;SDS011;23318;50.966;5.284;2024-03-25T03:43:06;18.25;;;8.02;;
37459;SDS011;23318;50.966;5.284;2024-03-25T03:45:35;13.15;;;7.15;;
37459;SDS011;23318;50.966;5.284;2024-03-25T03:48:00;15.98;;;7.43;;
37459;SDS011;23318;50.966;5.284;2024-03-25T03:50:26;16.35;;;7.53;;
37459;SDS011;23318;50.966;5.284;2024-03-25T03:52:52;18.30;;;8.10;;
37459;SDS011;23318;50.966;5.284;2024-03-25T03:55:17;14.93;;;7.18;;
37459;SDS011;23318;50.966;5.284;2024-03-25T03:57:44;13.88;;;7.20;;
37459;SDS011;23318;50.966;5.284;2024-03-25T04:00:10;15.00;;;7.18;;
37459;SDS011;23318;50.966;5.284;2024-03-25T04:02:37;12.35;;;7.28;;
37459;SDS011;23318;50.966;5.284;2024-03-25T04:05:03;17.08;;;8.45;;
37459;SDS011;23318;50.966;5.284;2024-03-25T04:07:29;17.02;;;7.75;;
37459;SDS011;23318;50.966;5.284;2024-03-25T04:09:57;19.27;;;9.00;;
37459;SDS011;23318;50.966;5.284;2024-03-25T04:12:22;14.52;;;7.90;;
37459;SDS011;23318;50.966;5.284;2024-03-25T04:14:48;23.70;;;7.95;;
37459;SDS011;23318;50.966;5.284;2024-03-25T04:17:19;17.65;;;7.32;;
37459;SDS011;23318;50.966;5.284;2024-03-25T04:19:46;15.25;;;8.10;;
37459;SDS011;23318;50.966;5.284;2024-03-25T04:22:12;18.05;;;8.40;;
37459;SDS011;23318;50.966;5.284;2024-03-25T04:24:38;17.00;;;8.20;;
37459;SDS011;23318;50.966;5.284;2024-03-25T04:27:03;17.55;;;8.57;;
37459;SDS011;23318;50.966;5.284;2024-03-25T04:29:29;16.90;;;8.30;;
37459;SDS011;23318;50.966;5.284;2024-03-25T04:31:54;15.55;;;7.63;;
37459;SDS011;23318;50.966;5.284;2024-03-25T04:34:20;18.70;;;8.07;;
37459;SDS011;23318;50.966;5.284;2024-03-25T04:36:46;21.02;;;9.80;;
37459;SDS011;23318;50.966;5.284;2024-03-25T04:39:11;18.33;;;8.10;;
37459;SDS011;23318;50.966;5.284;2024-03-25T04:41:37;19.65;;;8.00;;
37459;SDS011;23318;50.966;5.284;2024-03-25T04:44:02;22.42;;;8.35;;
37459;SDS011;23318;50.966;5.284;2024-03-25T04:46:28;23.95;;;9.85;;
37459;SDS011;23318;50.966;5.284;2024-03-25T04:48:54;20.60;;;8.48;;
37459;SDS011;23318;50.966;5.284;2024-03-25T04:51:19;19.17;;;8.80;;
37459;SDS011;23318;50.966;5.284;2024-03-25T04:53:46;22.60;;;9.40;;
37459;SDS011;23318;50.966;5.284;2024-03-25T04:56:11;16.20;;;7.90;;
37459;SDS011;23318;50.966;5.284;2024-03-25T04:58:37;17.30;;;8.73;;
37459;SDS011;23318;50.966;5.284;2024-03-25T05:01:04;16.05;;;8.05;;
37459;SDS011;23318;50.966;5.284;2024-03-25T05:03:29;24.33;;;9.82;;
37459;SDS011;23318;50.966;5.284;2024-03-25T05:05:55;22.02;;;8.73;;
37459;SDS011;23318;50.966;5.284;2024-03-25T05:08:21;19.08;;;8.43;;
37459;SDS011;23318;50.966;5.284;2024-03-25T05:10:47;18.95;;;9.73;;
37459;SDS011;23318;50.966;5.284;2024-03-25T05:13:13;20.75;;;8.77;;
37459;SDS011;23318;50.966;5.284;2024-03-25T05:15:38;20.75;;;9.93;;
37459;SDS011;23318;50.966;5.284;2024-03-25T05:18:04;22.70;;;8.90;;
37459;SDS011;23318;50.966;5.284;2024-03-25T05:20:29;20.08;;;9.30;;
37459;SDS011;23318;50.966;5.284;2024-03-25T05:22:55;21.98;;;8.18;;
37459;SDS011;23318;50.966;5.284;2024-03-25T05:25:21;22.52;;;9.25;;
37459;SDS011;23318;50.966;5.284;2024-03-25T05:27:53;33.88;;;10.40;;
37459;SDS011;23318;50.966;5.284;2024-03-25T05:30:19;22.23;;;9.13;;
37459;SDS011;23318;50.966;5.284;2024-03-25T05:32:44;22.98;;;9.43;;
37459;SDS011;23318;50.966;5.284;2024-03-25T05:35:10;22.48;;;10.35;;
37459;SDS011;23318;50.966;5.284;2024-03-25T05:37:36;20.15;;;8.85;;
37459;SDS011;23318;50.966;5.284;2024-03-25T05:40:02;17.90;;;8.98;;
37459;SDS011;23318;50.966;5.284;2024-03-25T05:42:28;19.73;;;9.27;;
37459;SDS011;23318;50.966;5.284;2024-03-25T05:44:54;24.23;;;10.10;;
37459;SDS011;23318;50.966;5.284;2024-03-25T05:47:19;22.17;;;9.50;;
37459;SDS011;23318;50.966;5.284;2024-03-25T05:49:46;21.75;;;10.15;;
37459;SDS011;23318;50.966;5.284;2024-03-25T05:52:12;20.30;;;8.60;;
37459;SDS011;23318;50.966;5.284;2024-03-25T05:54:38;21.30;;;8.90;;
37459;SDS011;23318;50.966;5.284;2024-03-25T05:57:03;24.27;;;8.65;;
37459;SDS011;23318;50.966;5.284;2024-03-25T05:59:29;16.45;;;9.45;;
37459;SDS011;23318;50.966;5.284;2024-03-25T06:01:55;18.90;;;9.57;;
37459;SDS011;23318;50.966;5.284;2024-03-25T06:04:20;19.88;;;8.48;;
37459;SDS011;23318;50.966;5.284;2024-03-25T06:06:46;22.55;;;9.50;;
37459;SDS011;23318;50.966;5.284;2024-03-25T06:09:11;19.60;;;9.07;;
37459;SDS011;23318;50.966;5.284;2024-03-25T06:11:37;17.05;;;8.27;;
37459;SDS011;23318;50.966;5.284;2024-03-25T06:14:03;18.85;;;8.35;;
37459;SDS011;23318;50.966;5.284;2024-03-25T06:16:28;18.77;;;8.98;;
37459;SDS011;23318;50.966;5.284;2024-03-25T06:18:54;20.80;;;8.95;;
37459;SDS011;23318;50.966;5.284;2024-03-25T06:21:19;19.80;;;9.35;;
37459;SDS011;23318;50.966;5.284;2024-03-25T06:23:45;21.30;;;10.07;;
37459;SDS011;23318;50.966;5.284;2024-03-25T06:26:11;20.38;;;9.43;;
37459;SDS011;23318;50.966;5.284;2024-03-25T06:28:36;25.02;;;8.75;;
37459;SDS011;23318;50.966;5.284;2024-03-25T06:31:02;22.75;;;9.25;;
37459;SDS011;23318;50.966;5.284;2024-03-25T06:33:46;17.73;;;8.77;;
37459;SDS011;23318;50.966;5.284;2024-03-25T06:36:30;24.83;;;9.98;;
37459;SDS011;23318;50.966;5.284;2024-03-25T06:38:56;28.20;;;9.80;;
37459;SDS011;23318;50.966;5.284;2024-03-25T06:41:21;23.52;;;9.57;;
37459;SDS011;23318;50.966;5.284;2024-03-25T06:43:47;29.58;;;9.75;;
37459;SDS011;23318;50.966;5.284;2024-03-25T06:46:13;26.13;;;9.80;;
37459;SDS011;23318;50.966;5.284;2024-03-25T06:48:38;26.80;;;10.68;;
37459;SDS011;23318;50.966;5.284;2024-03-25T06:51:04;27.02;;;10.48;;
37459;SDS011;23318;50.966;5.284;2024-03-25T06:53:30;31.65;;;10.93;;
37459;SDS011;23318;50.966;5.284;2024-03-25T06:55:56;30.23;;;11.45;;
37459;SDS011;23318;50.966;5.284;2024-03-25T06:58:26;32.95;;;12.20;;
37459;SDS011;23318;50.966;5.284;2024-03-25T07:00:53;31.77;;;10.90;;
37459;SDS011;23318;50.966;5.284;2024-03-25T07:03:20;27.38;;;11.60;;
37459;SDS011;23318;50.966;5.284;2024-03-25T07:05:47;24.70;;;10.88;;
37459;SDS011;23318;50.966;5.284;2024-03-25T07:08:14;23.45;;;10.07;;
37459;SDS011;23318;50.966;5.284;2024-03-25T07:10:43;23.52;;;10.65;;
37459;SDS011;23318;50.966;5.284;2024-03-25T07:13:09;22.23;;;10.05;;
37459;SDS011;23318;50.966;5.284;2024-03-25T07:15:34;28.75;;;10.13;;
37459;SDS011;23318;50.966;5.284;2024-03-25T07:18:00;28.10;;;10.18;;
37459;SDS011;23318;50.966;5.284;2024-03-25T07:20:26;26.73;;;9.55;;
37459;SDS011;23318;50.966;5.284;2024-03-25T07:22:55;21.15;;;10.02;;
37459;SDS011;23318;50.966;5.284;2024-03-25T07:25:21;27.88;;;9.65;;
37459;SDS011;23318;50.966;5.284;2024-03-25T07:27:47;21.45;;;9.38;;
37459;SDS011;23318;50.966;5.284;2024-03-25T07:30:13;25.73;;;9.73;;
37459;SDS011;23318;50.966;5.284;2024-03-25T07:32:39;23.35;;;8.95;;
37459;SDS011;23318;50.966;5.284;2024-03-25T07:35:05;31.50;;;9.88;;
37459;SDS011;23318;50.966;5.284;2024-03-25T07:37:32;29.40;;;9.45;;
37459;SDS011;23318;50.966;5.284;2024-03-25T07:39:58;19.90;;;8.93;;
37459;SDS011;23318;50.966;5.284;2024-03-25T07:42:24;27.52;;;11.15;;
37459;SDS011;23318;50.966;5.284;2024-03-25T07:44:50;25.40;;;9.23;;
37459;SDS011;23318;50.966;5.284;2024-03-25T07:47:15;25.27;;;9.25;;
37459;SDS011;23318;50.966;5.284;2024-03-25T07:49:41;27.60;;;9.15;;
37459;SDS011;23318;50.966;5.284;2024-03-25T07:52:06;29.67;;;8.13;;
37459;SDS011;23318;50.966;5.284;2024-03-25T07:54:32;25.77;;;8.77;;
37459;SDS011;23318;50.966;5.284;2024-03-25T07:56:58;25.67;;;9.15;;
37459;SDS011;23318;50.966;5.284;2024-03-25T07:59:24;22.52;;;8.60;;
37459;SDS011;23318;50.966;5.284;2024-03-25T08:01:49;23.73;;;9.27;;
37459;SDS011;23318;50.966;5.284;2024-03-25T08:04:15;19.30;;;8.45;;
37459;SDS011;23318;50.966;5.284;2024-03-25T08:06:41;18.02;;;7.55;;
37459;SDS011;23318;50.966;5.284;2024-03-25T08:09:07;25.55;;;8.25;;
37459;SDS011;23318;50.966;5.284;2024-03-25T08:11:34;19.30;;;7.88;;
37459;SDS011;23318;50.966;5.284;2024-03-25T08:14:00;22.15;;;8.13;;
37459;SDS011;23318;50.966;5.284;2024-03-25T08:16:25;20.67;;;6.93;;
37459;SDS011;23318;50.966;5.284;2024-03-25T08:18:51;21.17;;;7.80;;
37459;SDS011;23318;50.966;5.284;2024-03-25T08:21:17;22.73;;;7.40;;
37459;SDS011;23318;50.966;5.284;2024-03-25T08:23:45;23.80;;;7.03;;
37459;SDS011;23318;50.966;5.284;2024-03-25T08:26:11;17.63;;;6.63;;
37459;SDS011;23318;50.966;5.284;2024-03-25T08:28:37;16.52;;;6.47;;
37459;SDS011;23318;50.966;5.284;2024-03-25T08:31:03;21.33;;;6.18;;
37459;SDS011;23318;50.966;5.284;2024-03-25T08:33:29;16.48;;;5.88;;
37459;SDS011;23318;50.966;5.284;2024-03-25T08:35:55;17.65;;;6.20;;
37459;SDS011;23318;50.966;5.284;2024-03-25T08:38:20;17.50;;;6.35;;
37459;SDS011;23318;50.966;5.284;2024-03-25T08:40:46;17.02;;;5.85;;
37459;SDS011;23318;50.966;5.284;2024-03-25T08:43:12;21.42;;;6.15;;
37459;SDS011;23318;50.966;5.284;2024-03-25T08:45:37;21.55;;;7.43;;
37459;SDS011;23318;50.966;5.284;2024-03-25T08:48:03;13.27;;;5.68;;
37459;SDS011;23318;50.966;5.284;2024-03-25T08:50:29;17.90;;;5.40;;
37459;SDS011;23318;50.966;5.284;2024-03-25T08:52:55;13.93;;;5.20;;
37459;SDS011;23318;50.966;5.284;2024-03-25T08:55:20;15.98;;;6.00;;
37459;SDS011;23318;50.966;5.284;2024-03-25T08:57:46;20.70;;;5.65;;
37459;SDS011;23318;50.966;5.284;2024-03-25T09:00:12;13.30;;;5.32;;
37459;SDS011;23318;50.966;5.284;2024-03-25T09:02:38;14.85;;;5.78;;
37459;SDS011;23318;50.966;5.284;2024-03-25T09:05:03;19.33;;;6.43;;
37459;SDS011;23318;50.966;5.284;2024-03-25T09:07:30;20.23;;;5.85;;
37459;SDS011;23318;50.966;5.284;2024-03-25T09:09:56;21.27;;;6.00;;
37459;SDS011;23318;50.966;5.284;2024-03-25T09:12:41;11.43;;;4.72;;
37459;SDS011;23318;50.966;5.284;2024-03-25T09:15:06;15.30;;;5.55;;
37459;SDS011;23318;50.966;5.284;2024-03-25T09:17:32;14.25;;;5.03;;
37459;SDS011;23318;50.966;5.284;2024-03-25T09:19:58;13.38;;;4.70;;
37459;SDS011;23318;50.966;5.284;2024-03-25T09:22:23;14.55;;;5.43;;
37459;SDS011;23318;50.966;5.284;2024-03-25T09:24:49;10.82;;;5.15;;
37459;SDS011;23318;50.966;5.284;2024-03-25T09:27:15;13.93;;;4.32;;
37459;SDS011;23318;50.966;5.284;2024-03-25T09:29:41;14.00;;;5.18;;
37459;SDS011;23318;50.966;5.284;2024-03-25T09:32:07;11.60;;;5.18;;
37459;SDS011;23318;50.966;5.284;2024-03-25T09:34:33;12.10;;;4.32;;
37459;SDS011;23318;50.966;5.284;2024-03-25T09:36:58;13.52;;;5.18;;
37459;SDS011;23318;50.966;5.284;2024-03-25T09:39:24;15.10;;;5.32;;
37459;SDS011;23318;50.966;5.284;2024-03-25T09:41:51;12.23;;;6.10;;
37459;SDS011;23318;50.966;5.284;2024-03-25T09:44:24;14.85;;;4.03;;
37459;SDS011;23318;50.966;5.284;2024-03-25T09:46:51;15.45;;;4.40;;
37459;SDS011;23318;50.966;5.284;2024-03-25T09:49:17;17.08;;;4.57;;
37459;SDS011;23318;50.966;5.284;2024-03-25T09:51:43;16.20;;;3.85;;
37459;SDS011;23318;50.966;5.284;2024-03-25T09:54:09;9.40;;;4.40;;
37459;SDS011;23318;50.966;5.284;2024-03-25T09:56:35;12.07;;;4.10;;
37459;SDS011;23318;50.966;5.284;2024-03-25T09:59:03;7.68;;;3.40;;
37459;SDS011;23318;50.966;5.284;2024-03-25T10:01:29;10.05;;;3.65;;
37459;SDS011;23318;50.966;5.284;2024-03-25T10:03:54;6.65;;;3.35;;
37459;SDS011;23318;50.966;5.284;2024-03-25T10:06:20;15.38;;;4.95;;
37459;SDS011;23318;50.966;5.284;2024-03-25T10:08:46;10.13;;;3.20;;
37459;SDS011;23318;50.966;5.284;2024-03-25T10:11:12;7.18;;;3.65;;
37459;SDS011;23318;50.966;5.284;2024-03-25T10:13:40;9.65;;;3.40;;
37459;SDS011;23318;50.966;5.284;2024-03-25T10:16:06;12.02;;;4.00;;
37459;SDS011;23318;50.966;5.284;2024-03-25T10:18:32;12.38;;;2.97;;
37459;SDS011;23318;50.966;5.284;2024-03-25T10:20:58;6.97;;;2.70;;
37459;SDS011;23318;50.966;5.284;2024-03-25T10:23:24;6.40;;;2.55;;
37459;SDS011;23318;50.966;5.284;2024-03-25T10:25:53;5.45;;;2.50;;
37459;SDS011;23318;50.966;5.284;2024-03-25T10:28:19;6.82;;;3.50;;
37459;SDS011;23318;50.966;5.284;2024-03-25T10:30:45;6.22;;;3.38;;
37459;SDS011;23318;50.966;5.284;2024-03-25T10:33:11;5.38;;;2.60;;
37459;SDS011;23318;50.966;5.284;2024-03-25T10:35:37;4.88;;;1.95;;
37459;SDS011;23318;50.966;5.284;2024-03-25T10:38:04;5.30;;;2.00;;
37459;SDS011;23318;50.966;5.284;2024-03-25T10:40:36;5.78;;;1.50;;
37459;SDS011;23318;50.966;5.284;2024-03-25T10:43:07;8.20;;;2.10;;
37459;SDS011;23318;50.966;5.284;2024-03-25T10:45:37;4.40;;;1.35;;
37459;SDS011;23318;50.966;5.284;2024-03-25T10:50:40;10.55;;;3.33;;
37459;SDS011;23318;50.966;5.284;2024-03-25T10:53:07;4.25;;;2.25;;
37459;SDS011;23318;50.966;5.284;2024-03-25T10:55:35;7.03;;;1.70;;
37459;SDS011;23318;50.966;5.284;2024-03-25T10:58:02;5.55;;;2.72;;
37459;SDS011;23318;50.966;5.284;2024-03-25T11:00:29;5.90;;;1.90;;
37459;SDS011;23318;50.966;5.284;2024-03-25T11:02:55;5.32;;;2.05;;
37459;SDS011;23318;50.966;5.284;2024-03-25T11:05:21;6.70;;;2.35;;
37459;SDS011;23318;50.966;5.284;2024-03-25T11:07:47;7.05;;;2.50;;
37459;SDS011;23318;50.966;5.284;2024-03-25T11:10:13;6.03;;;1.80;;
37459;SDS011;23318;50.966;5.284;2024-03-25T11:12:41;5.05;;;2.10;;
37459;SDS011;23318;50.966;5.284;2024-03-25T11:15:08;5.45;;;2.58;;
37459;SDS011;23318;50.966;5.284;2024-03-25T11:17:34;7.05;;;2.30;;
37459;SDS011;23318;50.966;5.284;2024-03-25T11:20:08;8.07;;;2.90;;
37459;SDS011;23318;50.966;5.284;2024-03-25T11:22:35;4.28;;;2.08;;
37459;SDS011;23318;50.966;5.284;2024-03-25T11:25:07;8.20;;;2.67;;
37459;SDS011;23318;50.966;5.284;2024-03-25T11:27:36;9.35;;;2.13;;
37459;SDS011;23318;50.966;5.284;2024-03-25T11:30:03;3.33;;;1.73;;
37459;SDS011;23318;50.966;5.284;2024-03-25T11:32:40;3.45;;;1.35;;
37459;SDS011;23318;50.966;5.284;2024-03-25T11:35:08;5.43;;;1.05;;
37459;SDS011;23318;50.966;5.284;2024-03-25T11:37:39;7.30;;;1.95;;
37459;SDS011;23318;50.966;5.284;2024-03-25T11:40:05;3.13;;;1.23;;
37459;SDS011;23318;50.966;5.284;2024-03-25T11:42:32;5.00;;;1.70;;
37459;SDS011;23318;50.966;5.284;2024-03-25T11:44:59;4.38;;;1.77;;
37459;SDS011;23318;50.966;5.284;2024-03-25T11:47:26;6.20;;;1.63;;
37459;SDS011;23318;50.966;5.284;2024-03-25T11:49:52;5.47;;;2.00;;
37459;SDS011;23318;50.966;5.284;2024-03-25T11:52:18;3.83;;;1.98;;
37459;SDS011;23318;50.966;5.284;2024-03-25T11:54:43;6.82;;;1.95;;
37459;SDS011;23318;50.966;5.284;2024-03-25T11:57:09;4.82;;;1.80;;
37459;SDS011;23318;50.966;5.284;2024-03-25T11:59:35;2.80;;;1.58;;
37459;SDS011;23318;50.966;5.284;2024-03-25T12:02:00;3.95;;;1.85;;
37459;SDS011;23318;50.966;5.284;2024-03-25T12:04:26;4.18;;;1.50;;
37459;SDS011;23318;50.966;5.284;2024-03-25T12:06:55;2.97;;;1.27;;
37459;SDS011;23318;50.966;5.284;2024-03-25T12:09:22;2.28;;;1.00;;
37459;SDS011;23318;50.966;5.284;2024-03-25T12:12:06;5.38;;;1.45;;
37459;SDS011;23318;50.966;5.284;2024-03-25T12:14:33;3.05;;;1.40;;
37459;SDS011;23318;50.966;5.284;2024-03-25T12:16:59;2.28;;;1.10;;
37459;SDS011;23318;50.966;5.284;2024-03-25T12:19:24;4.53;;;1.83;;
37459;SDS011;23318;50.966;5.284;2024-03-25T12:21:50;4.47;;;1.50;;
37459;SDS011;23318;50.966;5.284;2024-03-25T12:24:23;4.38;;;1.60;;
37459;SDS011;23318;50.966;5.284;2024-03-25T12:26:50;5.40;;;1.73;;
37459;SDS011;23318;50.966;5.284;2024-03-25T12:29:16;3.47;;;1.48;;
37459;SDS011;23318;50.966;5.284;2024-03-25T12:31:42;6.28;;;1.88;;
37459;SDS011;23318;50.966;5.284;2024-03-25T12:34:14;5.20;;;1.65;;
37459;SDS011;23318;50.966;5.284;2024-03-25T12:39:07;3.20;;;1.40;;
37459;SDS011;23318;50.966;5.284;2024-03-25T12:44:06;8.63;;;2.45;;
37459;SDS011;23318;50.966;5.284;2024-03-25T12:46:32;2.50;;;1.00;;
37459;SDS011;23318;50.966;5.284;2024-03-25T12:48:58;4.43;;;1.10;;
37459;SDS011;23318;50.966;5.284;2024-03-25T12:51:24;2.95;;;1.20;;
37459;SDS011;23318;50.966;5.284;2024-03-25T12:53:50;2.47;;;1.00;;
37459;SDS011;23318;50.966;5.284;2024-03-25T12:56:16;8.13;;;1.75;;
37459;SDS011;23318;50.966;5.284;2024-03-25T12:58:41;4.47;;;1.17;;
37459;SDS011;23318;50.966;5.284;2024-03-25T13:01:07;4.20;;;1.33;;
37459;SDS011;23318;50.966;5.284;2024-03-25T13:03:33;2.85;;;1.05;;
37459;SDS011;23318;50.966;5.284;2024-03-25T13:05:59;7.00;;;1.83;;
37459;SDS011;23318;50.966;5.284;2024-03-25T13:08:25;4.30;;;0.98;;
37459;SDS011;23318;50.966;5.284;2024-03-25T13:10:50;4.40;;;1.15;;
37459;SDS011;23318;50.966;5.284;2024-03-25T13:13:16;2.20;;;1.00;;
37459;SDS011;23318;50.966;5.284;2024-03-25T13:15:43;1.98;;;0.95;;
37459;SDS011;23318;50.966;5.284;2024-03-25T13:18:09;2.13;;;0.93;;
37459;SDS011;23318;50.966;5.284;2024-03-25T13:20:34;4.40;;;1.05;;
37459;SDS011;23318;50.966;5.284;2024-03-25T13:23:00;3.03;;;1.17;;
37459;SDS011;23318;50.966;5.284;2024-03-25T13:25:26;2.25;;;1.30;;
37459;SDS011;23318;50.966;5.284;2024-03-25T13:27:52;1.73;;;1.00;;
37459;SDS011;23318;50.966;5.284;2024-03-25T13:30:18;10.23;;;1.63;;
37459;SDS011;23318;50.966;5.284;2024-03-25T13:32:50;2.47;;;0.90;;
37459;SDS011;23318;50.966;5.284;2024-03-25T13:35:16;4.28;;;1.20;;
37459;SDS011;23318;50.966;5.284;2024-03-25T13:37:41;4.38;;;1.83;;
37459;SDS011;23318;50.966;5.284;2024-03-25T13:40:07;2.53;;;1.20;;
37459;SDS011;23318;50.966;5.284;2024-03-25T13:42:34;5.45;;;1.40;;
37459;SDS011;23318;50.966;5.284;2024-03-25T13:44:59;5.13;;;1.50;;
37459;SDS011;23318;50.966;5.284;2024-03-25T13:47:25;5.78;;;1.80;;
37459;SDS011;23318;50.966;5.284;2024-03-25T13:50:01;2.28;;;1.20;;
37459;SDS011;23318;50.966;5.284;2024-03-25T13:52:33;3.58;;;1.33;;
37459;SDS011;23318;50.966;5.284;2024-03-25T13:54:59;2.10;;;0.95;;
37459;SDS011;23318;50.966;5.284;2024-03-25T13:57:26;7.13;;;1.65;;
37459;SDS011;23318;50.966;5.284;2024-03-25T13:59:51;5.40;;;1.20;;
37459;SDS011;23318;50.966;5.284;2024-03-25T14:02:17;2.53;;;1.48;;
37459;SDS011;23318;50.966;5.284;2024-03-25T14:04:43;3.88;;;1.17;;
37459;SDS011;23318;50.966;5.284;2024-03-25T14:07:08;3.20;;;1.20;;
37459;SDS011;23318;50.966;5.284;2024-03-25T14:09:34;5.20;;;1.00;;
37459;SDS011;23318;50.966;5.284;2024-03-25T14:12:00;2.45;;;1.40;;
37459;SDS011;23318;50.966;5.284;2024-03-25T14:14:25;3.67;;;1.45;;
37459;SDS011;23318;50.966;5.284;2024-03-25T14:16:51;2.80;;;1.40;;
37459;SDS011;23318;50.966;5.284;2024-03-25T14:19:17;3.13;;;1.25;;
37459;SDS011;23318;50.966;5.284;2024-03-25T14:21:43;3.92;;;1.33;;
37459;SDS011;23318;50.966;5.284;2024-03-25T14:24:09;6.43;;;1.63;;
37459;SDS011;23318;50.966;5.284;2024-03-25T14:26:34;5.13;;;1.95;;
37459;SDS011;23318;50.966;5.284;2024-03-25T14:29:00;3.95;;;1.35;;
37459;SDS011;23318;50.966;5.284;2024-03-25T14:31:26;3.80;;;1.05;;
37459;SDS011;23318;50.966;5.284;2024-03-25T14:33:54;2.80;;;1.38;;
37459;SDS011;23318;50.966;5.284;2024-03-25T14:36:20;4.28;;;1.60;;
37459;SDS011;23318;50.966;5.284;2024-03-25T14:38:47;3.88;;;1.70;;
37459;SDS011;23318;50.966;5.284;2024-03-25T14:41:12;3.33;;;1.38;;